Time;durP1;ratioP1;P1;durP2;ratioP2;P2;SDS_P1;SDS_P2;PMS_P1;PMS_P2;Temp;Humidity;BMP_temperature;BMP_pressure;BME280_temperature;BME280_humidity;BME280_pressure;Samples;Min_cycle;Max_cycle;Signal;HPM_P1;HPM_P2
2022/03/23 00:02:17;;;;;;;1999.90;999.90;;;;;;;3.55;30.06;102671.28;4938711;28;98463;-71
2022/03/23 00:04:45;;;;;;;1999.90;999.90;;;;;;;3.51;29.93;102669.22;4942649;28;97366;-72
2022/03/23 00:07:15;;;;;;;1999.90;999.90;;;;;;;3.48;29.91;102675.13;4943566;28;100609;-72
2022/03/23 00:09:43;;;;;;;1999.90;999.90;;;;;;;3.44;29.61;102673.03;4940549;28;100692;-72
2022/03/23 00:12:24;;;;;;;1999.90;999.90;;;;;;;3.40;30.40;102671.00;4940343;28;99445;-72
2022/03/23 00:14:53;;;;;;;1999.90;999.90;;;;;;;3.37;30.37;102670.72;4943823;28;97699;-72
2022/03/23 00:17:20;;;;;;;1999.90;999.90;;;;;;;3.34;30.43;102667.84;4943360;28;96821;-72
2022/03/23 00:19:49;;;;;;;1999.90;999.90;;;;;;;3.34;29.73;102670.50;4941296;28;98853;-72
2022/03/23 00:22:18;;;;;;;1999.90;999.90;;;;;;;3.33;29.71;102667.75;4939716;28;99046;-73
2022/03/23 00:24:46;;;;;;;1999.90;999.90;;;;;;;3.32;30.21;102666.81;4943752;28;97615;-73
2022/03/23 00:27:14;;;;;;;1999.90;999.90;;;;;;;3.32;29.89;102661.56;4942679;28;97133;-71
2022/03/23 00:29:42;;;;;;;1999.90;999.90;;;;;;;3.31;29.63;102664.06;4942172;28;97885;-72
2022/03/23 00:32:10;;;;;;;1999.90;999.90;;;;;;;3.30;30.38;102662.22;4943058;28;98216;-72
2022/03/23 00:34:38;;;;;;;1999.90;999.90;;;;;;;3.26;29.85;102665.41;4942865;28;96826;-72
2022/03/23 00:37:06;;;;;;;1999.90;999.90;;;;;;;3.22;30.54;102667.78;4926722;28;96917;-73
2022/03/23 00:39:35;;;;;;;1999.90;999.90;;;;;;;3.22;30.12;102664.25;4944515;28;99014;-72
2022/03/23 00:42:03;;;;;;;1999.90;999.90;;;;;;;3.19;29.92;102670.16;4943437;28;98573;-72
2022/03/23 00:44:33;;;;;;;1999.90;999.90;;;;;;;3.18;30.29;102667.44;4943057;28;97254;-72
2022/03/23 00:47:02;;;;;;;1999.90;999.90;;;;;;;3.16;30.23;102663.75;4928300;28;98012;-72
2022/03/23 00:49:30;;;;;;;1999.90;999.90;;;;;;;3.14;30.47;102660.06;4925993;28;98910;-72
2022/03/23 00:51:58;;;;;;;1999.90;999.90;;;;;;;3.12;30.33;102656.41;4941637;28;98736;-72
2022/03/23 00:54:27;;;;;;;1999.90;999.90;;;;;;;3.08;30.65;102657.88;4928593;28;96810;-72
2022/03/23 00:56:56;;;;;;;1999.90;999.90;;;;;;;3.05;30.58;102654.06;4943531;28;96881;-73
2022/03/23 00:59:24;;;;;;;1999.90;999.90;;;;;;;3.00;30.50;102655.41;4945114;28;97703;-71
2022/03/23 01:01:52;;;;;;;1999.90;999.90;;;;;;;2.97;30.37;102661.34;4946968;28;97933;-72
2022/03/23 01:04:21;;;;;;;1999.90;999.90;;;;;;;2.95;30.51;102654.09;4937623;28;96884;-72
2022/03/23 01:06:49;;;;;;;1999.90;999.90;;;;;;;2.93;30.18;102656.63;4944590;28;97317;-72
2022/03/23 01:09:17;;;;;;;1999.90;999.90;;;;;;;2.90;30.62;102656.38;4942335;28;97600;-72
2022/03/23 01:11:47;;;;;;;1999.90;999.90;;;;;;;2.87;30.95;102648.25;4941340;28;98874;-71
2022/03/23 01:14:16;;;;;;;1999.90;999.90;;;;;;;2.86;30.71;102650.72;4927737;28;97066;-72
2022/03/23 01:16:44;;;;;;;1999.90;999.90;;;;;;;2.81;31.16;102646.81;4928165;28;97327;-72
2022/03/23 01:19:12;;;;;;;1999.90;999.90;;;;;;;2.77;30.78;102649.97;4944788;28;97671;-72
2022/03/23 01:21:40;;;;;;;1999.90;999.90;;;;;;;2.72;30.94;102652.25;4943445;28;97537;-72
2022/03/23 01:24:08;;;;;;;1999.90;999.90;;;;;;;2.69;31.11;102653.69;4946277;28;97676;-73
2022/03/23 01:26:35;;;;;;;1999.90;999.90;;;;;;;2.65;30.49;102648.97;4945366;28;96924;-72
2022/03/23 01:29:03;;;;;;;1999.90;999.90;;;;;;;2.61;31.06;102647.81;4928917;28;97672;-72
2022/03/23 01:31:34;;;;;;;1999.90;999.90;;;;;;;2.56;30.90;102649.16;4925498;28;100903;-73
2022/03/23 01:34:02;;;;;;;1999.90;999.90;;;;;;;2.50;30.67;102650.31;4939223;28;97994;-73
2022/03/23 01:36:31;;;;;;;1999.90;999.90;;;;;;;2.45;31.36;102654.28;4945385;28;97428;-72
2022/03/23 01:38:59;;;;;;;1999.90;999.90;;;;;;;2.39;31.59;102657.31;4939803;28;99228;-72
2022/03/23 01:41:27;;;;;;;1999.90;999.90;;;;;;;2.36;31.22;102648.28;4923114;28;98918;-72
2022/03/23 01:43:55;;;;;;;1999.90;999.90;;;;;;;2.32;31.46;102654.97;4944055;28;98341;-72
2022/03/23 01:46:22;;;;;;;1999.90;999.90;;;;;;;2.28;31.52;102652.88;4937699;28;96993;-75
2022/03/23 01:48:51;;;;;;;1999.90;999.90;;;;;;;2.24;31.64;102647.25;4944641;28;101452;-74
2022/03/23 01:51:19;;;;;;;1999.90;999.90;;;;;;;2.18;31.55;102640.66;4948072;28;99261;-76
2022/03/23 01:53:47;;;;;;;1999.90;999.90;;;;;;;2.15;31.53;102642.13;4948617;28;97493;-75
2022/03/23 01:56:18;;;;;;;1999.90;999.90;;;;;;;2.11;32.42;102640.94;4967372;28;96789;-76
2022/03/23 01:58:46;;;;;;;1999.90;999.90;;;;;;;2.10;31.84;102639.13;4947694;28;97839;-73
2022/03/23 02:01:14;;;;;;;1999.90;999.90;;;;;;;2.08;31.87;102639.75;4931138;28;100511;-75
2022/03/23 02:03:42;;;;;;;1999.90;999.90;;;;;;;2.05;32.32;102640.38;4947060;28;97372;-74
2022/03/23 02:06:12;;;;;;;1999.90;999.90;;;;;;;2.02;31.80;102642.75;4942985;28;96989;-72
2022/03/23 02:08:41;;;;;;;1999.90;999.90;;;;;;;2.00;32.46;102641.72;4945913;28;100864;-71
2022/03/23 02:11:10;;;;;;;1999.90;999.90;;;;;;;1.99;31.70;102638.97;4942521;28;97545;-73
2022/03/23 02:13:41;;;;;;;1999.90;999.90;;;;;;;1.99;32.01;102639.88;4942888;28;97923;-73
2022/03/23 02:16:09;;;;;;;1999.90;999.90;;;;;;;1.98;31.84;102635.41;4943944;28;97519;-73
2022/03/23 02:18:37;;;;;;;1999.90;999.90;;;;;;;1.99;31.75;102636.34;4944350;28;98081;-72
2022/03/23 02:21:05;;;;;;;1999.90;999.90;;;;;;;2.00;32.21;102640.78;4927669;28;98536;-73
2022/03/23 02:23:36;;;;;;;1999.90;999.90;;;;;;;1.97;31.54;102635.28;4928262;28;97961;-73
2022/03/23 02:26:04;;;;;;;1999.90;999.90;;;;;;;1.95;31.78;102632.53;4945648;28;97063;-72
2022/03/23 02:28:32;;;;;;;1999.90;999.90;;;;;;;1.92;31.71;102634.91;4949854;28;97963;-71
2022/03/23 02:31:01;;;;;;;1999.90;999.90;;;;;;;1.91;32.44;102625.19;4952501;28;98486;-73
2022/03/23 02:33:29;;;;;;;1999.90;999.90;;;;;;;1.91;32.29;102624.25;4976515;28;96768;-72
2022/03/23 02:35:57;;;;;;;1999.90;999.90;;;;;;;1.90;32.57;102622.44;4947177;28;97003;-73
2022/03/23 02:38:24;;;;;;;1999.90;999.90;;;;;;;1.90;32.29;102620.72;4942207;28;98039;-72
2022/03/23 02:40:54;;;;;;;1999.90;999.90;;;;;;;1.88;31.85;102624.94;4944664;28;99098;-72
2022/03/23 02:43:22;;;;;;;1999.90;999.90;;;;;;;1.87;32.47;102622.19;4959319;28;97191;-72
2022/03/23 02:45:49;;;;;;;1999.90;999.90;;;;;;;1.84;31.93;102628.06;4941654;28;97882;-71
2022/03/23 02:48:17;;;;;;;1999.90;999.90;;;;;;;1.81;32.31;102635.69;4943149;28;98712;-73
2022/03/23 02:50:45;;;;;;;1999.90;999.90;;;;;;;1.76;32.58;102634.34;4942671;28;97678;-74
2022/03/23 03:01:54;;;;;;;1999.90;999.90;;;;;;;1.59;32.95;102624.13;4941979;28;98744;-72
2022/03/23 03:04:24;;;;;;;1999.90;999.90;;;;;;;1.57;33.01;102630.03;4944937;28;96896;-71
2022/03/23 03:06:52;;;;;;;1999.90;999.90;;;;;;;1.52;32.52;102632.28;4943950;28;97606;-72
2022/03/23 03:09:20;;;;;;;1999.90;999.90;;;;;;;1.46;32.51;102631.72;4944092;28;100025;-71
2022/03/23 03:11:49;;;;;;;1999.90;999.90;;;;;;;1.42;32.37;102645.34;4942936;28;98649;-72
2022/03/23 03:14:17;;;;;;;1999.90;999.90;;;;;;;1.33;32.79;102638.38;4942284;28;97325;-72
2022/03/23 03:16:45;;;;;;;1999.90;999.90;;;;;;;1.24;33.32;102646.38;4945816;28;96971;-72
2022/03/23 03:19:13;;;;;;;1999.90;999.90;;;;;;;1.17;33.06;102651.88;4947325;28;99135;-72
2022/03/23 03:21:41;;;;;;;1999.90;999.90;;;;;;;1.14;33.33;102643.75;4926742;28;98905;-73
2022/03/23 03:24:09;;;;;;;1999.90;999.90;;;;;;;1.10;33.73;102652.09;4945022;28;97278;-71
2022/03/23 03:26:37;;;;;;;1999.90;999.90;;;;;;;1.05;33.56;102642.94;4942285;28;97050;-73
2022/03/23 03:29:06;;;;;;;1999.90;999.90;;;;;;;1.00;33.73;102646.81;4945802;28;98054;-72
2022/03/23 03:31:33;;;;;;;1999.90;999.90;;;;;;;0.96;33.82;102647.31;4942833;28;98454;-72
2022/03/23 03:34:01;;;;;;;1999.90;999.90;;;;;;;0.91;33.71;102652.16;4943839;28;96954;-72
2022/03/23 03:36:29;;;;;;;1999.90;999.90;;;;;;;0.87;33.96;102650.03;4945221;28;97759;-72
2022/03/23 03:38:56;;;;;;;1999.90;999.90;;;;;;;0.83;34.22;102650.53;4944364;28;97615;-72
2022/03/23 03:41:24;;;;;;;1999.90;999.90;;;;;;;0.79;34.09;102647.53;4941121;28;97647;-72
2022/03/23 03:43:52;;;;;;;1999.90;999.90;;;;;;;0.77;34.50;102651.72;4942330;28;97993;-70
2022/03/23 03:46:21;;;;;;;1999.90;999.90;;;;;;;0.73;34.30;102657.44;4941935;28;99027;-73
2022/03/23 03:48:49;;;;;;;1999.90;999.90;;;;;;;0.68;34.07;102653.50;4943183;28;98293;-73
2022/03/23 03:51:17;;;;;;;1999.90;999.90;;;;;;;0.63;34.27;102657.41;4941439;28;98409;-71
2022/03/23 03:53:44;;;;;;;1999.90;999.90;;;;;;;0.60;34.44;102655.44;4939741;28;98059;-72
2022/03/23 03:56:12;;;;;;;1999.90;999.90;;;;;;;0.56;34.71;102652.41;4953417;28;99470;-73
2022/03/23 03:58:40;;;;;;;1999.90;999.90;;;;;;;0.53;34.83;102659.97;4939385;28;98517;-73
2022/03/23 04:01:09;;;;;;;1999.90;999.90;;;;;;;0.49;34.77;102653.53;4940724;28;98093;-73
2022/03/23 04:03:39;;;;;;;1999.90;999.90;;;;;;;0.45;35.01;102653.13;4939670;28;97764;-70
2022/03/23 04:06:07;;;;;;;1999.90;999.90;;;;;;;0.42;35.02;102647.59;4943871;28;97757;-74
2022/03/23 04:08:35;;;;;;;1999.90;999.90;;;;;;;0.45;35.15;102653.13;4945612;28;97627;-73
2022/03/23 04:11:04;;;;;;;1999.90;999.90;;;;;;;0.47;35.16;102654.16;4943137;28;97723;-72
2022/03/23 04:13:32;;;;;;;1999.90;999.90;;;;;;;0.48;35.00;102661.25;4945020;28;98270;-72
2022/03/23 04:15:59;;;;;;;1999.90;999.90;;;;;;;0.48;35.04;102656.94;4947993;28;96894;-73
2022/03/23 04:18:27;;;;;;;1999.90;999.90;;;;;;;0.46;35.33;102653.25;4962932;28;97752;-73
2022/03/23 04:20:57;;;;;;;1999.90;999.90;;;;;;;0.45;35.08;102655.75;4947388;28;99269;-72
2022/03/23 04:23:32;;;;;;;1999.90;999.90;;;;;;;0.41;35.10;102656.25;4947380;28;98006;-72
2022/03/23 04:25:59;;;;;;;1999.90;999.90;;;;;;;0.37;35.25;102661.97;4945446;28;97809;-72
2022/03/23 04:28:27;;;;;;;1999.90;999.90;;;;;;;0.34;35.52;102659.97;4947015;28;97536;-72
2022/03/23 04:30:56;;;;;;;1999.90;999.90;;;;;;;0.31;35.41;102657.09;4945615;28;100381;-71
2022/03/23 04:33:24;;;;;;;1999.90;999.90;;;;;;;0.30;35.32;102654.34;4945786;28;96887;-72
2022/03/23 04:35:51;;;;;;;1999.90;999.90;;;;;;;0.31;35.36;102664.00;4930376;28;96972;-71
2022/03/23 04:38:20;;;;;;;1999.90;999.90;;;;;;;0.30;35.22;102659.56;4948419;28;98298;-72
2022/03/23 04:40:48;;;;;;;1999.90;999.90;;;;;;;0.30;35.39;102657.88;4945513;28;98996;-72
2022/03/23 04:43:16;;;;;;;1999.90;999.90;;;;;;;0.30;35.17;102656.94;4946122;28;98629;-72
2022/03/23 04:45:44;;;;;;;1999.90;999.90;;;;;;;0.30;35.04;102655.25;4946136;28;96812;-71
2022/03/23 04:48:12;;;;;;;1999.90;999.90;;;;;;;0.30;35.00;102659.56;4943972;28;99971;-71
2022/03/23 04:50:40;;;;;;;1999.90;999.90;;;;;;;0.28;34.88;102658.50;4943052;28;98027;-70
2022/03/23 04:53:08;;;;;;;1999.90;999.90;;;;;;;0.25;34.95;102655.63;4943645;28;97276;-72
2022/03/23 04:55:37;;;;;;;1999.90;999.90;;;;;;;0.23;35.12;102654.53;4943692;28;97026;-72
2022/03/23 04:58:05;;;;;;;1999.90;999.90;;;;;;;0.20;34.77;102658.69;4945788;28;98221;-71
2022/03/23 05:00:34;;;;;;;1999.90;999.90;;;;;;;0.19;34.76;102661.16;4944100;28;98708;-72
2022/03/23 05:03:04;;;;;;;1999.90;999.90;;;;;;;0.16;35.16;102663.47;4944501;28;97107;-70
2022/03/23 05:05:32;;;;;;;1999.90;999.90;;;;;;;0.15;35.08;102667.81;4946107;28;97847;-72
2022/03/23 05:07:59;;;;;;;1999.90;999.90;;;;;;;0.15;34.88;102665.22;4929873;28;99341;-72
2022/03/23 05:10:27;;;;;;;1999.90;999.90;;;;;;;0.14;34.93;102662.41;4948417;28;99283;-71
2022/03/23 05:12:57;;;;;;;1999.90;999.90;;;;;;;0.14;34.75;102660.72;4951809;28;100085;-72
2022/03/23 05:15:25;;;;;;;1999.90;999.90;;;;;;;0.73;34.30;102654.81;4957178;28;96795;-74
2022/03/23 05:17:53;;;;;;;1999.90;999.90;;;;;;;0.94;34.28;102660.28;4953805;28;99052;-72
2022/03/23 05:20:21;;;;;;;1999.90;999.90;;;;;;;0.56;35.08;102662.88;4945308;28;98451;-72
2022/03/23 05:22:49;;;;;;;1999.90;999.90;;;;;;;0.45;34.80;102660.97;4948326;28;97140;-72
2022/03/23 05:25:17;;;;;;;1999.90;999.90;;;;;;;0.40;34.89;102664.84;4947242;28;97582;-72
2022/03/23 05:27:44;;;;;;;1999.90;999.90;;;;;;;0.36;35.07;102668.00;4948320;28;99075;-73
2022/03/23 05:30:18;;;;;;;1999.90;999.90;;;;;;;0.32;34.87;102666.75;4944627;28;100714;-74
2022/03/23 05:32:53;;;;;;;1999.90;999.90;;;;;;;0.29;35.10;102668.19;4940616;28;98361;-72
2022/03/23 05:35:21;;;;;;;1999.90;999.90;;;;;;;0.26;34.91;102670.53;4946004;28;97297;-73
2022/03/23 05:37:49;;;;;;;1999.90;999.90;;;;;;;0.23;34.86;102674.66;4947111;28;97916;-74
2022/03/23 05:40:17;;;;;;;1999.90;999.90;;;;;;;0.23;34.74;102672.84;4941591;28;98433;-74
2022/03/23 05:42:45;;;;;;;1999.90;999.90;;;;;;;0.22;34.83;102674.53;4944649;28;97031;-75
2022/03/23 05:45:14;;;;;;;1999.90;999.90;;;;;;;0.20;34.97;102679.63;4947151;28;98668;-75
2022/03/23 05:47:42;;;;;;;1999.90;999.90;;;;;;;0.20;34.70;102674.41;4943086;28;98907;-76
2022/03/23 05:50:11;;;;;;;1999.90;999.90;;;;;;;0.20;34.42;102669.16;4940550;28;99475;-75
2022/03/23 05:52:40;;;;;;;1999.90;999.90;;;;;;;0.20;34.90;102678.69;4940727;28;97811;-76
2022/03/23 05:55:08;;;;;;;1999.90;999.90;;;;;;;0.19;34.74;102675.16;4954659;28;98856;-77
2022/03/23 05:57:37;;;;;;;1999.90;999.90;;;;;;;0.18;34.66;102675.94;4940314;28;98864;-75
2022/03/23 06:00:07;;;;;;;1999.90;999.90;;;;;;;0.19;34.70;102677.78;4942308;28;98943;-75
2022/03/23 06:02:40;;;;;;;1999.90;999.90;;;;;;;0.21;34.49;102677.94;4940565;28;96928;-75
2022/03/23 06:05:09;;;;;;;1999.90;999.90;;;;;;;0.23;34.73;102681.59;4937912;28;97443;-75
2022/03/23 06:07:37;;;;;;;1999.90;999.90;;;;;;;0.23;34.52;102686.84;4943502;28;97670;-76
2022/03/23 06:10:07;;;;;;;1999.90;999.90;;;;;;;0.23;34.55;102681.59;4941860;28;100650;-75
2022/03/23 06:12:35;;;;;;;1999.90;999.90;;;;;;;0.23;34.42;102682.53;4944821;28;97888;-75
2022/03/23 06:15:03;;;;;;;1999.90;999.90;;;;;;;0.24;34.54;102686.09;4945411;28;96729;-75
2022/03/23 06:17:31;;;;;;;1999.90;999.90;;;;;;;0.26;34.07;102695.03;4944081;28;97435;-75
2022/03/23 06:20:00;;;;;;;1999.90;999.90;;;;;;;0.27;34.63;102691.63;4925913;28;98669;-75
2022/03/23 06:22:27;;;;;;;1999.90;999.90;;;;;;;0.28;34.47;102692.53;4944594;28;97135;-76
2022/03/23 06:24:55;;;;;;;1999.90;999.90;;;;;;;0.29;34.40;102696.97;4942672;28;98503;-75
2022/03/23 06:27:23;;;;;;;1999.90;999.90;;;;;;;0.31;34.28;102693.75;4944953;28;99264;-76
2022/03/23 06:29:50;;;;;;;1999.90;999.90;;;;;;;0.35;34.27;102700.19;4940572;28;99271;-77
2022/03/23 06:32:18;;;;;;;1999.90;999.90;;;;;;;0.40;34.35;102707.69;4941124;28;97078;-76
2022/03/23 06:34:46;;;;;;;1999.90;999.90;;;;;;;0.44;33.98;102696.72;4941791;28;97214;-77
2022/03/23 06:37:15;;;;;;;1999.90;999.90;;;;;;;0.52;34.31;102705.28;4942908;28;100354;-76
2022/03/23 06:39:43;;;;;;;1999.90;999.90;;;;;;;0.58;33.89;102700.59;4944740;28;98775;-76
2022/03/23 06:42:10;;;;;;;1999.90;999.90;;;;;;;0.64;34.13;102702.09;4941868;28;97779;-77
2022/03/23 06:44:38;;;;;;;1999.90;999.90;;;;;;;0.71;33.99;102706.16;4942838;28;97135;-76
2022/03/23 06:47:06;;;;;;;1999.90;999.90;;;;;;;0.77;33.68;102697.19;4944423;28;98823;-76
2022/03/23 06:49:34;;;;;;;1999.90;999.90;;;;;;;0.84;33.80;102706.50;4943129;28;99363;-76
2022/03/23 06:52:02;;;;;;;1999.90;999.90;;;;;;;0.89;33.49;102703.53;4943148;28;97994;-76
2022/03/23 06:54:31;;;;;;;1999.90;999.90;;;;;;;0.96;33.87;102702.34;4944384;28;98221;-77
2022/03/23 06:56:58;;;;;;;1999.90;999.90;;;;;;;1.01;33.37;102714.19;4944589;28;99200;-77
2022/03/23 06:59:26;;;;;;;1999.90;999.90;;;;;;;1.06;33.28;102710.28;4946426;28;98564;-77
2022/03/23 07:01:54;;;;;;;1999.90;999.90;;;;;;;1.13;33.45;102708.34;4944858;28;97421;-77
2022/03/23 07:04:24;;;;;;;1999.90;999.90;;;;;;;1.18;33.11;102709.69;4942669;28;97367;-77
2022/03/23 07:06:52;;;;;;;1999.90;999.90;;;;;;;1.25;33.13;102707.63;4961209;28;100493;-76
2022/03/23 07:09:31;;;;;;;1999.90;999.90;;;;;;;1.29;33.71;102705.38;4945261;28;98831;-76
2022/03/23 07:12:01;;;;;;;1999.90;999.90;;;;;;;1.36;33.12;102706.88;4926795;28;96845;-76
2022/03/23 07:14:29;;;;;;;1999.90;999.90;;;;;;;1.38;32.92;102700.94;4945950;28;100639;-76
2022/03/23 07:16:57;;;;;;;1999.90;999.90;;;;;;;1.43;33.08;102702.31;4944826;28;98937;-76
2022/03/23 07:19:24;;;;;;;1999.90;999.90;;;;;;;1.49;33.48;102708.06;4944596;28;97632;-75
2022/03/23 07:21:52;;;;;;;1999.90;999.90;;;;;;;1.55;33.09;102705.06;4942482;28;97192;-76
2022/03/23 07:24:20;;;;;;;1999.90;999.90;;;;;;;1.60;33.02;102707.31;4945059;28;96925;-76
2022/03/23 07:26:48;;;;;;;1999.90;999.90;;;;;;;2.09;31.96;102688.91;4943619;28;98184;-76
2022/03/23 07:29:37;;;;;;;1999.90;999.90;;;;;;;1.85;32.70;102690.25;4944245;28;99698;-76
2022/03/23 07:32:05;;;;;;;1999.90;999.90;;;;;;;1.84;32.62;102695.38;4942466;28;97424;-76
2022/03/23 07:34:33;;;;;;;1999.90;999.90;;;;;;;1.86;32.96;102694.75;4945094;28;96923;-76
2022/03/23 07:37:01;;;;;;;1999.90;999.90;;;;;;;1.87;32.86;102696.56;4945932;28;97908;-76
2022/03/23 07:39:29;;;;;;;1999.90;999.90;;;;;;;1.93;33.05;102699.72;4944852;28;98458;-77
2022/03/23 07:41:56;;;;;;;1999.90;999.90;;;;;;;1.98;32.59;102701.03;4942338;28;97775;-76
2022/03/23 07:44:25;;;;;;;1999.90;999.90;;;;;;;2.05;32.97;102700.78;4927671;28;97632;-76
2022/03/23 07:46:54;;;;;;;1999.90;999.90;;;;;;;2.13;33.05;102702.41;4944470;28;97861;-76
2022/03/23 07:49:24;;;;;;;1999.90;999.90;;;;;;;2.21;32.77;102705.69;4944016;28;99223;-76
2022/03/23 07:51:52;;;;;;;1999.90;999.90;;;;;;;2.28;32.72;102697.53;4943656;28;97476;-77
2022/03/23 07:54:20;;;;;;;1999.90;999.90;;;;;;;2.36;32.32;102708.69;4945094;28;96771;-76
2022/03/23 07:56:48;;;;;;;1999.90;999.90;;;;;;;2.41;31.83;102710.00;4944315;28;99245;-76
2022/03/23 07:59:15;;;;;;;1999.90;999.90;;;;;;;2.48;32.93;102709.72;4944478;28;98432;-76
2022/03/23 08:01:43;;;;;;;1999.90;999.90;;;;;;;2.54;31.75;102712.88;4943662;28;96771;-76
2022/03/23 08:04:12;;;;;;;1999.90;999.90;;;;;;;2.60;32.14;102705.50;4943562;28;97289;-76
2022/03/23 08:06:40;;;;;;;1999.90;999.90;;;;;;;2.65;32.10;102706.81;4942472;28;97323;-75
2022/03/23 08:09:07;;;;;;;1999.90;999.90;;;;;;;2.69;32.47;102706.28;4944222;28;97592;-76
2022/03/23 08:11:42;;;;;;;1999.90;999.90;;;;;;;2.75;31.78;102710.31;4943366;28;97211;-76
2022/03/23 08:14:09;;;;;;;1999.90;999.90;;;;;;;2.80;31.83;102710.72;4944466;28;97122;-76
2022/03/23 08:16:37;;;;;;;1999.90;999.90;;;;;;;2.86;32.23;102705.94;4945259;28;97551;-77
2022/03/23 08:19:05;;;;;;;1999.90;999.90;;;;;;;2.93;32.17;102708.31;4944499;28;97894;-76
2022/03/23 08:21:34;;;;;;;1999.90;999.90;;;;;;;2.97;31.78;102708.66;4943026;28;97058;-76
2022/03/23 08:24:02;;;;;;;1999.90;999.90;;;;;;;3.04;31.61;102702.19;4943169;28;97509;-76
2022/03/23 08:26:30;;;;;;;1999.90;999.90;;;;;;;3.11;31.77;102707.19;4943649;28;97986;-76
2022/03/23 08:28:58;;;;;;;1999.90;999.90;;;;;;;3.19;31.67;102706.06;4945355;28;97560;-76
2022/03/23 08:31:26;;;;;;;1999.90;999.90;;;;;;;3.22;31.19;102706.34;4943245;28;96876;-76
2022/03/23 08:33:54;;;;;;;1999.90;999.90;;;;;;;3.28;31.64;102706.81;4942916;28;97832;-76
2022/03/23 08:36:21;;;;;;;1999.90;999.90;;;;;;;3.35;31.78;102708.25;4944512;28;98563;-76
2022/03/23 08:38:51;;;;;;;1999.90;999.90;;;;;;;3.42;31.62;102703.63;4943169;28;100064;-77
2022/03/23 08:41:18;;;;;;;1999.90;999.90;;;;;;;3.48;31.62;102701.44;4926421;28;96815;-76
2022/03/23 08:43:46;;;;;;;1999.90;999.90;;;;;;;3.56;31.72;102703.00;4942345;28;97144;-76
2022/03/23 08:46:14;;;;;;;1999.90;999.90;;;;;;;3.65;30.94;102706.38;4926689;28;100199;-76
2022/03/23 08:48:42;;;;;;;1999.90;999.90;;;;;;;3.73;30.96;102701.72;4944618;28;97688;-77
2022/03/23 08:51:11;;;;;;;1999.90;999.90;;;;;;;3.81;30.96;102706.78;4945813;28;96989;-78
2022/03/23 08:53:42;;;;;;;1999.90;999.90;;;;;;;3.90;31.25;102707.53;4948607;28;97568;-76
2022/03/23 08:56:12;;;;;;;1999.90;999.90;;;;;;;3.98;30.77;102703.78;4946999;28;99237;-76
2022/03/23 08:58:47;;;;;;;1999.90;999.90;;;;;;;4.06;30.69;102697.38;4961394;28;100232;-77
2022/03/23 09:01:15;;;;;;;1999.90;999.90;;;;;;;4.14;30.61;102700.59;4959785;28;97064;-76
2022/03/23 09:03:44;;;;;;;1999.90;999.90;;;;;;;4.18;30.82;102700.97;4946015;28;96903;-76
2022/03/23 09:06:12;;;;;;;1999.90;999.90;;;;;;;4.23;30.62;102698.69;4962634;28;98693;-77
2022/03/23 09:08:40;;;;;;;1999.90;999.90;;;;;;;4.30;30.58;102711.53;4951412;28;98825;-76
2022/03/23 09:11:07;;;;;;;1999.90;999.90;;;;;;;4.35;30.66;102706.63;4946213;28;96974;-76
2022/03/23 09:13:36;;;;;;;1999.90;999.90;;;;;;;4.41;30.34;102701.84;4949627;28;97525;-76
2022/03/23 09:16:05;;;;;;;1999.90;999.90;;;;;;;4.45;30.53;102699.53;4948140;28;97121;-76
2022/03/23 09:18:32;;;;;;;1999.90;999.90;;;;;;;4.51;30.10;102696.44;4947816;28;98891;-76
2022/03/23 09:21:01;;;;;;;1999.90;999.90;;;;;;;4.57;30.46;102694.28;4948388;28;97653;-77
2022/03/23 09:23:32;;;;;;;1999.90;999.90;;;;;;;4.64;30.04;102692.22;4947917;28;97412;-76
2022/03/23 09:26:01;;;;;;;1999.90;999.90;;;;;;;4.70;30.30;102697.94;4947353;28;97665;-75
2022/03/23 09:28:29;;;;;;;1999.90;999.90;;;;;;;4.78;30.18;102702.09;4963213;28;97664;-76
2022/03/23 09:30:59;;;;;;;1999.90;999.90;;;;;;;4.88;29.95;102695.78;4946541;28;97478;-76
2022/03/23 09:33:28;;;;;;;1999.90;999.90;;;;;;;4.96;29.82;102705.16;4946391;28;97393;-76
2022/03/23 09:35:55;;;;;;;1999.90;999.90;;;;;;;5.02;29.67;102698.66;4947154;28;97694;-76
2022/03/23 09:38:23;;;;;;;1999.90;999.90;;;;;;;5.09;29.67;102693.03;4946250;28;99143;-75
2022/03/23 09:40:52;;;;;;;1999.90;999.90;;;;;;;5.14;29.67;102704.84;4947274;28;96960;-75
2022/03/23 09:43:21;;;;;;;1999.90;999.90;;;;;;;5.21;29.61;102704.47;4945575;28;97251;-76
2022/03/23 09:45:50;;;;;;;1999.90;999.90;;;;;;;5.27;29.66;102696.09;4945156;28;99268;-76
2022/03/23 09:48:21;;;;;;;1999.90;999.90;;;;;;;5.36;29.33;102691.47;4946865;28;99009;-75
2022/03/23 09:50:52;;;;;;;1999.90;999.90;;;;;;;5.43;29.49;102698.13;4944143;28;96775;-76
2022/03/23 09:53:21;;;;;;;1999.90;999.90;;;;;;;5.49;29.59;102688.91;4961401;28;97515;-76
2022/03/23 09:55:50;;;;;;;1999.90;999.90;;;;;;;5.58;29.19;102691.28;4946521;28;97691;-76
2022/03/23 09:58:18;;;;;;;1999.90;999.90;;;;;;;5.64;29.49;102690.03;4946416;28;98716;-76
2022/03/23 10:00:48;;;;;;;1999.90;999.90;;;;;;;5.73;29.09;102685.38;4947023;28;97709;-76
2022/03/23 10:03:51;;;;;;;1999.90;999.90;;;;;;;5.78;29.07;102678.69;4944684;28;97673;-76
2022/03/23 10:06:47;;;;;;;1999.90;999.90;;;;;;;5.87;28.83;102678.41;4943782;28;98979;-76
2022/03/23 10:09:36;;;;;;;1999.90;999.90;;;;;;;5.94;28.71;102678.97;4945945;28;97942;-76
2022/03/23 10:12:43;;;;;;;1999.90;999.90;;;;;;;6.03;28.52;102678.72;4944538;28;97541;-76
2022/03/23 10:15:56;;;;;;;1999.90;999.90;;;;;;;6.11;28.93;102670.50;4960836;28;97206;-76
2022/03/23 10:18:40;;;;;;;1999.90;999.90;;;;;;;6.22;28.61;102674.78;4909886;28;98601;-76
2022/03/23 10:21:08;;;;;;;1999.90;999.90;;;;;;;6.33;29.09;102671.97;4943539;28;99914;-75
2022/03/23 10:23:38;;;;;;;1999.90;999.90;;;;;;;6.41;28.67;102676.06;4961079;28;97715;-75
2022/03/23 10:26:13;;;;;;;1999.90;999.90;;;;;;;6.51;28.70;102676.78;4946458;28;96667;-76
2022/03/23 10:28:41;;;;;;;1999.90;999.90;;;;;;;6.61;28.85;102673.03;4946358;28;97740;-76
2022/03/23 10:31:17;;;;;;;1999.90;999.90;;;;;;;6.67;28.44;102671.72;4943380;28;99037;-76
2022/03/23 10:33:46;;;;;;;1999.90;999.90;;;;;;;6.77;28.67;102668.88;4945914;28;97813;-76
2022/03/23 10:36:14;;;;;;;1999.90;999.90;;;;;;;6.86;28.18;102668.56;4944288;28;96968;-76
2022/03/23 10:38:43;;;;;;;1999.90;999.90;;;;;;;6.93;28.37;102669.06;4946278;28;98805;-76
2022/03/23 10:41:12;;;;;;;1999.90;999.90;;;;;;;7.02;28.27;102666.09;4946869;28;98095;-76
2022/03/23 10:43:40;;;;;;;1999.90;999.90;;;;;;;7.10;27.96;102662.25;4945737;28;97011;-76
2022/03/23 10:46:08;;;;;;;1999.90;999.90;;;;;;;7.16;28.26;102660.88;4946588;28;96972;-76
2022/03/23 10:48:37;;;;;;;1999.90;999.90;;;;;;;7.22;27.83;102652.44;4960406;28;99179;-76
2022/03/23 10:51:04;;;;;;;1999.90;999.90;;;;;;;7.29;27.93;102659.94;4943749;28;100130;-76
2022/03/23 10:53:35;;;;;;;1999.90;999.90;;;;;;;7.34;27.60;102653.22;4945531;28;96869;-75
2022/03/23 10:56:04;;;;;;;1999.90;999.90;;;;;;;7.42;27.90;102649.34;4946410;28;97585;-76
2022/03/23 10:58:34;;;;;;;1999.90;999.90;;;;;;;7.50;27.65;102652.50;4946098;28;96955;-76
2022/03/23 11:01:04;;;;;;;1999.90;999.90;;;;;;;7.56;27.43;102650.25;4945568;28;98174;-76
2022/03/23 11:03:37;;;;;;;1999.90;999.90;;;;;;;7.64;27.75;102641.94;4944107;28;97550;-76
2022/03/23 11:06:07;;;;;;;1999.90;999.90;;;;;;;7.71;27.46;102649.44;4946179;28;97248;-75
2022/03/23 11:08:35;;;;;;;1999.90;999.90;;;;;;;7.81;27.36;102646.56;4944105;28;99348;-76
2022/03/23 11:16:40;;;;;;;1999.90;999.90;;;;;;;7.99;27.49;102642.41;4945634;28;97334;-76
2022/03/23 11:19:14;;;;;;;1999.90;999.90;;;;;;;8.03;27.42;102633.81;4943116;28;99486;-76